• Join FlightAware (Why Join?)
  • Login
  • US Flag 
08:19PM EDT


 

Airport Tracker/Info


-or-


 

Live Flight TrackerFlight Track Log ✈ WJA1790 ✈ 25-Jul-2013 ✈ CYVR - KLAS

Flight Track Log - Related Links

Times and Time Zones

All times are in EDT time to prevent confusion due to time zone crossing. See the WJA1790 flight status page for this flight to view local times or setup timezone preferences in your user account.

Time Position Orientation Groundspeed Altitude Reporting Facility
EDT Latitude Longitude Course Direction KTS MPH feet Rate Location/Type
09:48PM 49.1870 -123.1840 281° West 152 175  Level FlightAware
09:48PM 49.1910 -123.2120 282° West 170 196 600 1,680 Climbing FlightAware
09:49PM 49.1940 -123.2410 279° West 186 214 1,400 2,040 Climbing FlightAware
09:49PM 49.1930 -123.2850 268° West 210 242 2,500 2,400 Climbing FlightAware
09:49PM 49.1920 -123.3070 266° West 215 247 3,200 1,920 Climbing FlightAware
09:50PM 49.1880 -123.3470 261° West 256 295 3,800 2,040 Climbing FlightAware
09:50PM 49.1660 -123.3790 224° Southwest 271 312 4,900 2,700 Climbing FlightAware
09:50PM 49.1540 -123.3840 195° South 274 315 5,400 3,000 Climbing FlightAware
09:51PM 49.1160 -123.3700 166° South 287 330 6,900 3,000 Climbing FlightAware
09:51PM 49.0930 -123.3560 158° South 291 335 7,800 3,120 Climbing FlightAware
09:52PM 49.0610 -123.3350 157° South 292 336 9,200 2,520 Climbing FlightAware
09:52PM 49.0070 -123.3000 157° South 327 376 10,700 2,340 Climbing FlightAware
09:53PM 48.9480 -123.2620 157° South 352 405 12,400 2,880 Climbing FlightAware
09:54PM 48.8840 -123.2200 157° South 367 422 14,600 3,060 Climbing FlightAware
09:55PM 48.8130 -123.1740 157° South 381 438 16,900 3,180 Climbing FlightAware
09:55PM 48.7630 -123.1410 156° South 379 436 18,700 3,000 Climbing FlightAware
09:56PM 48.6860 -123.0920 157° South 393 452 20,800 2,700 Climbing FlightAware
09:56PM 48.6180 -123.0490 157° South 404 465 22,600 2,580 Climbing FlightAware
09:57PM 48.5460 -123.0020 157° South 412 474 24,400 2,340 Climbing FlightAware
09:58PM 48.4660 -122.9520 157° South 424 488 26,000 1,980 Climbing FlightAware
09:59PM 48.3960 -122.9070 157° South 437 503 27,200 1,800 Climbing FlightAware
09:59PM 48.3130 -122.8540 157° South 446 513 28,600 1,860 Climbing FlightAware
10:00PM 48.2420 -122.8100 158° South 454 522 29,700 1,620 Climbing FlightAware
10:01PM 48.1680 -122.7630 157° South 464 534 30,600 1,620 Climbing FlightAware
10:01PM 48.0840 -122.7100 157° South 467 537 31,900 1,860 Climbing FlightAware
10:02PM 47.9850 -122.6480 157° South 463 533 33,500 1,860 Climbing FlightAware
10:03PM 47.9070 -122.6140 164° South 446 513 34,700 1,860 Climbing FlightAware
10:03PM 47.8330 -122.6280 187° South 433 498 35,900 1,500 Climbing FlightAware
10:04PM 47.7280 -122.6480 187° South 428 493 37,000 660 Climbing FlightAware
10:05PM 47.6490 -122.6620 187° South 426 490 37,000  Level FlightAware
10:06PM 47.5660 -122.6770 187° South 425 489 37,000  Level FlightAware
10:06PM 47.4900 -122.6920 188° South 424 488 37,000  Level FlightAware
10:07PM 47.4150 -122.7040 186° South 425 489 37,000  Level FlightAware
10:07PM 47.3830 -122.6960 170° South 437 503 37,000 300 Level FlightAware
10:08PM 47.3060 -122.6180 146° Southeast 469 540 37,300 600 Climbing FlightAware
10:09PM 47.2290 -122.5280 142° Southeast 475 547 37,900 1,080 Climbing FlightAware
10:09PM 47.1600 -122.4480 142° Southeast 469 540 38,900 780 Climbing FlightAware
10:10PM 47.0900 -122.3680 142° Southeast 468 539 39,000 60 Climbing FlightAware
10:11PM 47.0180 -122.2860 142° Southeast 468 539 39,000  Level FlightAware
10:11PM 46.9440 -122.2010 142° Southeast 467 537 39,000  Level FlightAware
10:12PM 46.8750 -122.1220 142° Southeast 466 536 39,000  Level FlightAware
10:13PM 46.8120 -122.0510 142° Southeast 464 534 39,000  Level FlightAware
10:14PM 46.7380 -121.9670 142° Southeast 463 533 39,000  Level FlightAware
10:14PM 46.6610 -121.8800 142° Southeast 462 532 39,000  Level FlightAware
10:15PM 46.5880 -121.7980 142° Southeast 462 532 39,000  Level FlightAware
10:16PM 46.5240 -121.7250 142° Southeast 461 531 39,000  Level FlightAware
10:16PM 46.4490 -121.6410 142° Southeast 458 527 39,000  Level FlightAware
10:17PM 46.3830 -121.5680 143° Southeast 457 526 39,000  Level FlightAware
10:18PM 46.3100 -121.4870 143° Southeast 457 526 39,000  Level FlightAware
10:18PM 46.2360 -121.4040 142° Southeast 457 526 39,000  Level FlightAware
10:19PM 46.1700 -121.3310 143° Southeast 455 524 39,000  Level FlightAware
10:20PM 46.0990 -121.2540 143° Southeast 455 524 39,000  Level FlightAware
10:21PM 46.0260 -121.1740 143° Southeast 455 524 39,000  Level FlightAware
10:21PM 45.9590 -121.1010 143° Southeast 456 525 39,000  Level FlightAware
10:22PM 45.8850 -121.0210 143° Southeast 457 526 39,000  Level FlightAware
10:23PM 45.8190 -120.9480 142° Southeast 458 527 39,000  Level FlightAware
10:23PM 45.7430 -120.8660 143° Southeast 460 529 39,000  Level FlightAware
10:24PM 45.6790 -120.7980 143° Southeast 461 531 39,000  Level FlightAware
10:25PM 45.6070 -120.7200 143° Southeast 461 531 39,000  Level FlightAware
10:25PM 45.5420 -120.6490 143° Southeast 459 528 39,000  Level FlightAware
10:26PM 45.4710 -120.5870 149° Southeast 450 518 39,000  Level FlightAware
10:27PM 45.3910 -120.5260 152° Southeast 446 513 39,000  Level FlightAware
10:27PM 45.3190 -120.4720 152° Southeast 447 514 39,000  Level FlightAware
10:28PM 45.2380 -120.4120 152° Southeast 447 514 39,000  Level FlightAware
10:29PM 45.1650 -120.3580 152° Southeast 449 517 39,000  Level FlightAware
10:30PM 45.0810 -120.2950 152° Southeast 450 518 39,000  Level FlightAware
10:30PM 45.0230 -120.2520 152° Southeast 448 516 39,000  Level FlightAware
10:31PM 44.9390 -120.1900 152° Southeast 445 512 39,000  Level FlightAware
10:31PM 44.8650 -120.1360 153° Southeast 444 511 39,000  Level FlightAware
10:32PM 44.8000 -120.0890 153° Southeast 445 512 39,000  Level FlightAware
10:33PM 44.7310 -120.0380 152° Southeast 446 513 39,000  Level FlightAware
10:33PM 44.6460 -119.9760 153° Southeast 444 511 39,000  Level FlightAware
10:34PM 44.5740 -119.9240 153° Southeast 443 510 39,000  Level FlightAware
10:35PM 44.4930 -119.8650 153° Southeast 442 509 39,000  Level FlightAware
10:36PM 44.4190 -119.8110 152° Southeast 441 507 39,000  Level FlightAware
10:36PM 44.3420 -119.7570 153° Southeast 445 512 39,000  Level FlightAware
10:37PM 44.2760 -119.7090 152° Southeast 448 516 39,000  Level FlightAware
10:38PM 44.2030 -119.6560 153° Southeast 448 516 39,000  Level FlightAware
10:38PM 44.1290 -119.5990 151° Southeast 457 526 39,000  Level FlightAware
10:39PM 44.0630 -119.5250 141° Southeast 463 533 39,000  Level FlightAware
10:40PM 43.9870 -119.4390 141° Southeast 461 531 39,000  Level FlightAware
10:40PM 43.9190 -119.3590 140° Southeast 463 533 39,000  Level FlightAware
10:41PM 43.8520 -119.2830 141° Southeast 461 531 39,000  Level FlightAware
10:42PM 43.7760 -119.1960 140° Southeast 457 526 39,000  Level FlightAware
10:42PM 43.7290 -119.1440 141° Southeast 456 525 39,000  Level FlightAware
10:43PM 43.6520 -119.0560 140° Southeast 453 521 39,000  Level FlightAware
10:44PM 43.5960 -118.9930 141° Southeast 453 521 39,000  Level FlightAware
10:44PM 43.5280 -118.9150 140° Southeast 454 522 39,000  Level FlightAware
10:45PM 43.4620 -118.8410 141° Southeast 454 522 39,000  Level FlightAware
10:46PM 43.3980 -118.7690 141° Southeast 454 522 39,000  Level FlightAware
10:46PM 43.3340 -118.6990 141° Southeast 455 524 39,000  Level FlightAware
10:47PM 43.2700 -118.6270 141° Southeast 458 527 39,000  Level FlightAware
10:48PM 43.1960 -118.5450 141° Southeast 461 531 39,000  Level FlightAware
10:48PM 43.1300 -118.4720 141° Southeast 464 534 39,000  Level FlightAware
10:49PM 43.0570 -118.3910 141° Southeast 462 532 39,000  Level FlightAware
10:50PM 42.9910 -118.3180 141° Southeast 464 534 39,000  Level FlightAware
10:51PM 42.9180 -118.2390 142° Southeast 464 534 39,000  Level FlightAware
10:51PM 42.8630 -118.1780 141° Southeast 465 535 39,000  Level FlightAware
10:52PM 42.7890 -118.0980 142° Southeast 463 533 39,000  Level FlightAware
10:53PM 42.7170 -118.0180 141° Southeast 463 533 39,000  Level FlightAware
10:53PM 42.6490 -117.9450 142° Southeast 462 532 39,000  Level FlightAware
10:54PM 42.5820 -117.8730 142° Southeast 463 533 39,000  Level FlightAware
10:55PM 42.5120 -117.7960 141° Southeast 466 536 39,000  Level FlightAware
10:55PM 42.4390 -117.7190 142° Southeast 463 533 39,000  Level FlightAware
10:56PM 42.3800 -117.6550 141° Southeast 463 533 39,000  Level FlightAware
10:57PM 42.3070 -117.5780 142° Southeast 463 533 39,000  Level FlightAware
10:57PM 42.2400 -117.5050 141° Southeast 464 534 39,000  Level FlightAware
10:58PM 42.1720 -117.4330 142° Southeast 463 533 39,000  Level FlightAware
10:59PM 42.0950 -117.3520 142° Southeast 464 534 39,000  Level FlightAware
10:59PM 42.0320 -117.2850 142° Southeast 466 536 39,000  Level FlightAware
11:00PM 41.9570 -117.2060 142° Southeast 467 537 39,000  Level FlightAware
11:01PM 41.8850 -117.1300 142° Southeast 467 537 39,000  Level FlightAware
11:01PM 41.8120 -117.0530 142° Southeast 466 536 39,000  Level FlightAware
11:02PM 41.7420 -116.9810 142° Southeast 465 535 39,000  Level FlightAware
11:03PM 41.6750 -116.9110 142° Southeast 463 533 39,000  Level FlightAware
11:04PM 41.6000 -116.8320 142° Southeast 462 532 39,000  Level FlightAware
11:04PM 41.5260 -116.7560 142° Southeast 461 531 39,000  Level FlightAware
11:05PM 41.4720 -116.6990 142° Southeast 461 531 39,000  Level FlightAware
11:06PM 41.3980 -116.6240 143° Southeast 462 532 39,000  Level FlightAware
11:07PM 41.3140 -116.5340 141° Southeast 463 533 39,000  Level FlightAware
11:07PM 41.2630 -116.4790 141° Southeast 463 533 39,000  Level FlightAware
11:08PM 41.2100 -116.4230 142° Southeast 463 533 39,000  Level FlightAware
11:09PM 41.1420 -116.3500 141° Southeast 463 533 39,000  Level FlightAware
11:09PM 41.0910 -116.2950 141° Southeast 463 533 39,000  Level FlightAware
11:10PM 41.0070 -116.2040 141° Southeast 463 533 39,000  Level FlightAware
11:11PM 40.9560 -116.1490 141° Southeast 463 533 39,000  Level FlightAware
11:12PM 40.8850 -116.0740 141° Southeast 463 533 39,000  Level FlightAware
11:12PM 40.8170 -116.0010 141° Southeast 463 533 39,000  Level FlightAware
11:13PM 40.7660 -115.9460 141° Southeast 463 533 39,000  Level FlightAware
11:14PM 40.6970 -115.8720 141° Southeast 463 533 39,000  Level FlightAware
11:14PM 40.6610 -115.8350 142° Southeast 463 533 39,000  Level FlightAware
11:15PM 40.5930 -115.7620 141° Southeast 463 533 39,000  Level FlightAware
11:16PM 40.5420 -115.7080 141° Southeast 463 533 39,000  Level FlightAware
11:17PM 40.2581 -115.4722 141° Southeast 467 537 39,000  Level Salt Lake Center
11:18PM 40.1586 -115.3758 143° Southeast 466 536 39,000  Level Salt Lake Center
11:19PM 40.0433 -115.2625 143° Southeast 463 533 39,000  Level Salt Lake Center
11:20PM 39.9442 -115.1678 144° Southeast 461 531 39,000 -420 Level Salt Lake Center
11:21PM 39.8322 -115.0572 143° Southeast 453 521 38,200 -1,080 Descending Salt Lake Center
11:22PM 39.7342 -114.9625 143° Southeast 457 526 36,900 -1,380 Descending Salt Lake Center
11:23PM 39.6336 -114.8664 144° Southeast 465 535 35,500 -960 Descending Salt Lake Center
11:24PM 39.5150 -114.7517 143° Southeast 474 545 35,000 -300 Descending Salt Lake Center
11:25PM 39.4206 -114.6433 138° Southeast 475 547 35,000  Level Salt Lake Center
11:26PM 39.3253 -114.4911 129° Southeast 484 557 35,000  Level Salt Lake Center
11:27PM 39.2383 -114.3525 129° Southeast 485 558 35,000  Level Salt Lake Center
11:28PM 39.1625 -114.2342 130° Southeast 485 558 35,000  Level Salt Lake Center
11:29PM 39.0764 -114.1011 130° Southeast 485 558 35,000  Level Salt Lake Center
11:30PM 38.9733 -113.9394 129° Southeast 487 560 35,000  Level Salt Lake Center
11:31PM 38.8886 -113.8072 129° Southeast 480 552 35,000  Level Salt Lake Center
11:32PM 38.8022 -113.6786 131° Southeast 477 549 35,000  Level Salt Lake Center
11:33PM 38.7172 -113.5483 130° Southeast 476 548 35,000  Level Salt Lake Center
11:34PM 38.6139 -113.4497 143° Southeast 473 544 35,000  Level Salt Lake Center
11:35PM 38.4942 -113.4003 162° South 457 526 35,000  Level Salt Lake Center
11:36PM 38.3750 -113.3517 162° South 452 520 35,000  Level Salt Lake Center
11:37PM 38.2558 -113.3011 162° South 451 519 35,000  Level Salt Lake Center
11:38PM 38.1356 -113.2878 175° South 454 522 35,000 -1,500 Level Salt Lake Center
11:39PM 38.0047 -113.3578 203° Southwest 431 496 32,000 -1,500 Descending Salt Lake Center
11:40PM 37.8933 -113.4164 203° Southwest 435 501 32,000 -240 Level Salt Lake Center
11:46PM 37.3000 -113.8420 203° Southwest 412 474 30,600 -420 Descending FlightAware
11:47PM 37.2340 -113.8890 210° Southwest 413 475 29,400 -1,380 Descending FlightAware
11:47PM 37.1590 -113.9430 210° Southwest 426 490 28,700 -1,680 Descending FlightAware
11:48PM 37.0900 -113.9920 210° Southwest 416 479 27,100 -2,340 Descending FlightAware
11:49PM 37.0180 -114.0430 209° Southwest 406 467 25,500 -2,280 Descending FlightAware
11:50PM 36.9500 -114.0910 209° Southwest 393 452 23,900 -2,220 Descending FlightAware
11:50PM 36.8830 -114.1390 210° Southwest 383 441 22,400 -2,100 Descending FlightAware
11:51PM 36.8210 -114.1820 209° Southwest 374 430 21,000 -2,040 Descending FlightAware
11:52PM 36.7580 -114.2270 210° Southwest 378 435 19,600 -2,160 Descending FlightAware
11:52PM 36.6910 -114.2740 209° Southwest 389 448 18,000 -2,220 Descending FlightAware
11:53PM 36.6240 -114.3200 209° Southwest 377 434 16,500 -2,040 Descending FlightAware
11:54PM 36.5690 -114.3590 210° Southwest 370 426 15,200 -2,160 Descending FlightAware
11:54PM 36.5100 -114.4000 209° Southwest 365 420 13,800 -2,220 Descending FlightAware
11:55PM 36.4510 -114.4410 209° Southwest 359 413 12,400 -1,260 Descending FlightAware
11:56PM 36.3910 -114.4810 208° Southwest 319 367 12,100 -240 Descending FlightAware
11:56PM 36.3430 -114.4940 192° South 282 325 12,100 -240 Level FlightAware
11:57PM 36.2940 -114.5070 192° South 259 298 11,800 -720 Descending FlightAware
11:57PM 36.2620 -114.5200 198° South 257 296 11,300 -1,200 Descending FlightAware
11:58PM 36.2510 -114.5320 221° Southwest 257 296 11,000 -1,200 Descending FlightAware
11:58PM 36.2370 -114.5620 240° Southwest 253 291 10,600 -1,080 Descending FlightAware
11:59PM 36.2240 -114.6150 253° West 251 289 9,900 -1,020 Descending FlightAware
11:59PM 36.2180 -114.6370 251° West 251 289 9,700 -1,020 Descending FlightAware
11:59PM 36.2080 -114.6750 252° West 252 290 9,200 -1,020 Descending FlightAware
12:00AM 36.1980 -114.7100 251° West 249 287 8,800 -1,020 Descending FlightAware
12:00AM 36.1880 -114.7510 253° West 246 283 8,300 -1,080 Descending FlightAware
12:01AM 36.1820 -114.7720 251° West 245 282 8,000 -1,020 Descending FlightAware
12:01AM 36.1730 -114.8070 252° West 241 277 7,600 -720 Descending FlightAware
12:01AM 36.1670 -114.8270 250° West 235 270 7,500 -180 Descending FlightAware
12:02AM 36.1600 -114.8560 253° West 203 234 7,500 -360 Level FlightAware
12:02AM 36.1550 -114.8710 248° West 193 222 7,300 -1,200 Descending FlightAware
12:02AM 36.1480 -114.9000 253° West 185 213 6,700 -1,080 Descending FlightAware
12:03AM 36.1400 -114.9280 251° West 171 197 6,300 -720 Descending FlightAware
12:03AM 36.1350 -114.9490 254° West 165 190 6,100 -420 Descending FlightAware
12:04AM 36.1330 -114.9660 262° West 162 186 6,000 -1,200 Descending FlightAware
12:04AM 36.1350 -115.0020 274° West 164 189 5,000 -1,440 Descending FlightAware
12:05AM 36.1360 -115.0270 273° West 156 180 4,500 -900 Descending FlightAware
12:05AM 36.1380 -115.0490 276° West 150 173 4,200 -660 Descending FlightAware
12:06AM 36.1390 -115.0730 273° West 149 171 3,900 -780 Descending FlightAware
12:06AM 36.1350 -115.1090 262° West 139 160 3,300 -780 Descending FlightAware
12:07AM 36.1300 -115.1310 254° West 139 160 3,000 -780 Descending FlightAware
12:07AM 36.1250 -115.1380 229° Southwest 134 154 2,800 -780 Descending FlightAware
12:08AM 36.1100 -115.1470 206° Southwest 130 150 2,500 -660 Descending FlightAware
12:16AM 36.0801 -115.1523 219° Southwest  Level Estimated